Time;durP1;ratioP1;P1;durP2;ratioP2;P2;SDS_P1;SDS_P2;PMS_P1;PMS_P2;Temp;Humidity;BMP_temperature;BMP_pressure;BME280_temperature;BME280_humidity;BME280_pressure;Samples;Min_cycle;Max_cycle;Signal;HPM_P1;HPM_P2
2021/12/26 00:00:12;;;;;;;5.40;2.85;;;;;;;-3.56;100.00;95629.00;5044588;28;20408;-71
2021/12/26 00:02:38;;;;;;;8.32;3.97;;;;;;;-3.59;100.00;95640.59;5043885;28;20039;-71
2021/12/26 00:05:05;;;;;;;9.73;4.78;;;;;;;-3.65;100.00;95628.28;5044424;28;20041;-70
2021/12/26 00:07:30;;;;;;;10.70;4.63;;;;;;;-3.59;100.00;95631.94;5020183;28;20033;-71
2021/12/26 00:09:56;;;;;;;8.90;5.07;;;;;;;-3.58;100.00;95628.34;5044668;28;20029;-72
2021/12/26 00:12:21;;;;;;;8.60;4.57;;;;;;;-3.53;100.00;95629.44;5043830;28;20036;-71
2021/12/26 00:14:47;;;;;;;5.03;2.75;;;;;;;-3.44;100.00;95624.91;5045006;28;20033;-71
2021/12/26 00:17:13;;;;;;;7.68;2.97;;;;;;;-3.30;100.00;95618.06;5042859;28;20036;-70
2021/12/26 00:19:38;;;;;;;8.30;3.90;;;;;;;-3.43;100.00;95624.72;5044154;28;20324;-73
2021/12/26 00:22:04;;;;;;;8.95;4.40;;;;;;;-3.48;100.00;95616.63;5043630;28;20044;-71
2021/12/26 00:24:29;;;;;;;9.13;4.60;;;;;;;-3.42;100.00;95618.53;5043947;28;20056;-71
2021/12/26 00:26:55;;;;;;;6.35;4.03;;;;;;;-3.37;100.00;95617.97;5042137;28;20116;-71
2021/12/26 00:29:21;;;;;;;9.10;4.63;;;;;;;-3.33;100.00;95619.25;5043886;28;20033;-71
2021/12/26 00:31:46;;;;;;;6.78;3.80;;;;;;;-3.33;100.00;95623.66;5044195;28;20041;-71
2021/12/26 00:34:12;;;;;;;7.93;3.47;;;;;;;-3.29;100.00;95615.25;5025587;28;20044;-71
2021/12/26 00:36:37;;;;;;;8.73;4.47;;;;;;;-3.20;100.00;95619.38;5026873;28;20839;-71
2021/12/26 00:39:05;;;;;;;10.98;4.63;;;;;;;-3.20;100.00;95619.38;5043087;28;20444;-71
2021/12/26 00:41:30;;;;;;;12.02;5.65;;;;;;;-3.16;100.00;95636.34;5043575;28;20387;-71
2021/12/26 00:43:56;;;;;;;19.77;7.93;;;;;;;-3.32;100.00;95628.72;5043693;28;20041;-71
2021/12/26 00:46:21;;;;;;;13.40;4.85;;;;;;;-3.21;100.00;95623.00;5020316;28;20051;-71
2021/12/26 00:48:47;;;;;;;9.15;5.15;;;;;;;-3.09;100.00;95615.50;5043310;28;20049;-72
2021/12/26 00:51:13;;;;;;;10.80;5.10;;;;;;;-3.14;100.00;95617.84;5043190;28;20129;-72
2021/12/26 00:53:38;;;;;;;8.65;3.80;;;;;;;-3.08;100.00;95617.91;5041527;28;20059;-71
2021/12/26 00:56:04;;;;;;;8.13;4.78;;;;;;;-3.11;100.00;95604.41;5024511;28;20461;-71
2021/12/26 00:58:30;;;;;;;6.80;3.50;;;;;;;-3.04;100.00;95588.75;5025897;28;20048;-70
2021/12/26 01:00:56;;;;;;;7.65;3.38;;;;;;;-3.00;100.00;95603.91;5042748;28;20463;-71
2021/12/26 01:03:22;;;;;;;7.80;3.72;;;;;;;-3.12;100.00;95594.91;5043420;28;20540;-71
2021/12/26 01:05:53;;;;;;;5.53;3.10;;;;;;;-3.39;100.00;95610.31;5031946;28;20420;-71
2021/12/26 01:08:27;;;;;;;10.85;5.05;;;;;;;-3.41;100.00;95593.19;5030851;28;20088;-71
2021/12/26 01:11:03;;;;;;;9.40;4.63;;;;;;;-3.09;100.00;95600.59;5024930;28;20087;-70
2021/12/26 01:13:37;;;;;;;7.80;3.90;;;;;;;-3.08;100.00;95604.03;5042821;28;20040;-70
2021/12/26 01:16:16;;;;;;;8.75;4.13;;;;;;;-3.06;100.00;95595.97;5041390;28;20045;-70
2021/12/26 01:18:51;;;;;;;9.98;4.82;;;;;;;-3.05;100.00;95592.38;5025291;28;20051;-71
2021/12/26 01:21:21;;;;;;;9.82;4.68;;;;;;;-2.93;100.00;95601.38;5042173;28;20045;-71
2021/12/26 01:23:54;;;;;;;7.63;3.50;;;;;;;-2.85;100.00;95601.25;5039189;28;20047;-71
2021/12/26 01:26:20;;;;;;;10.25;4.45;;;;;;;-2.77;100.00;95593.28;5041623;28;20491;-71
2021/12/26 01:28:46;;;;;;;8.77;4.20;;;;;;;-2.88;100.00;95594.59;5042012;28;20316;-71
2021/12/26 01:31:18;;;;;;;9.65;4.28;;;;;;;-2.95;100.00;95595.50;5023821;28;20049;-72
2021/12/26 01:33:51;;;;;;;8.02;4.57;;;;;;;-2.98;100.00;95595.88;5041365;28;20334;-71
2021/12/26 01:36:27;;;;;;;7.57;3.47;;;;;;;-3.00;100.00;95601.28;5017784;28;20436;-72
2021/12/26 01:39:12;;;;;;;10.70;4.72;;;;;;;-2.93;100.00;95602.19;5043004;28;20094;-71
2021/12/26 01:42:10;;;;;;;9.98;4.50;;;;;;;-3.00;100.00;95614.38;5026199;28;20048;-72
2021/12/26 01:44:45;;;;;;;10.02;4.90;;;;;;;-2.91;100.00;95613.28;5024799;28;20040;-71
2021/12/26 01:47:14;;;;;;;9.65;4.88;;;;;;;-2.89;100.00;95618.31;5023241;28;20450;-71
2021/12/26 01:49:40;;;;;;;8.35;4.90;;;;;;;-3.03;100.00;95613.97;5024635;28;20284;-71
2021/12/26 01:52:06;;;;;;;14.00;5.80;;;;;;;-3.05;100.00;95621.97;5023285;28;20064;-72
2021/12/26 01:54:43;;;;;;;8.43;3.47;;;;;;;-3.09;100.00;95615.50;5040012;28;20087;-72
2021/12/26 01:57:11;;;;;;;10.63;5.10;;;;;;;-2.97;100.00;95624.47;5023615;28;20037;-71
2021/12/26 01:59:39;;;;;;;12.45;5.53;;;;;;;-2.99;100.00;95623.84;5041674;28;20091;-72
2021/12/26 02:02:09;;;;;;;11.23;5.55;;;;;;;-2.99;100.00;95629.09;5018743;28;20037;-71
2021/12/26 02:04:40;;;;;;;10.93;5.35;;;;;;;-2.98;100.00;95622.03;5037120;28;20481;-71
2021/12/26 02:07:08;;;;;;;10.52;3.63;;;;;;;-2.92;100.00;95616.09;5039743;28;20036;-72
2021/12/26 02:09:34;;;;;;;9.20;4.70;;;;;;;-2.81;100.00;95618.19;5020051;28;20025;-71
2021/12/26 02:12:01;;;;;;;11.68;4.47;;;;;;;-2.93;100.00;95617.09;5025313;28;20037;-72
2021/12/26 02:14:28;;;;;;;9.10;4.70;;;;;;;-3.06;100.00;95606.44;5019470;28;20052;-71
2021/12/26 02:17:17;;;;;;;13.75;5.38;;;;;;;-2.94;100.00;95616.28;5039972;28;20141;-71
2021/12/26 02:19:44;;;;;;;12.00;5.80;;;;;;;-2.81;100.00;95605.91;5033766;28;20099;-71
2021/12/26 02:22:18;;;;;;;8.00;3.85;;;;;;;-2.87;100.00;95606.69;5023388;28;20029;-71
2021/12/26 02:27:32;;;;;;;10.93;5.35;;;;;;;-2.85;100.00;95603.88;5023934;28;20767;-71
2021/12/26 02:30:05;;;;;;;9.70;5.30;;;;;;;-2.79;100.00;95603.13;5023684;28;20418;-70
2021/12/26 02:32:31;;;;;;;5.70;3.40;;;;;;;-2.92;100.00;95611.66;5023047;28;20041;-71
2021/12/26 02:34:58;;;;;;;11.63;6.07;;;;;;;-2.84;100.00;95605.50;5039829;28;20547;-72
2021/12/26 02:37:25;;;;;;;12.15;5.60;;;;;;;-2.86;100.00;95607.50;5042091;28;20045;-71
2021/12/26 02:39:51;;;;;;;11.68;6.07;;;;;;;-2.81;100.00;95603.28;5044018;28;20043;-70
2021/12/26 02:42:18;;;;;;;13.82;5.68;;;;;;;-2.72;100.00;95605.78;5028520;28;20033;-71
2021/12/26 02:44:44;;;;;;;8.20;4.47;;;;;;;-2.87;100.00;95596.22;5037358;28;20056;-71
2021/12/26 02:47:09;;;;;;;13.27;6.18;;;;;;;-2.84;100.00;95595.81;5043089;28;20040;-72
2021/12/26 02:49:35;;;;;;;4.68;2.63;;;;;;;-2.90;100.00;95593.94;5046040;28;20268;-71
2021/12/26 02:52:00;;;;;;;8.70;3.95;;;;;;;-3.12;100.00;95590.47;5045017;28;20321;-71
2021/12/26 02:54:26;;;;;;;11.43;5.15;;;;;;;-3.08;100.00;95590.94;5034813;28;20074;-71
2021/12/26 02:56:54;;;;;;;8.95;4.43;;;;;;;-3.05;100.00;95594.97;5043067;28;20138;-71
2021/12/26 02:59:20;;;;;;;15.77;5.95;;;;;;;-2.98;100.00;95590.63;5027039;28;20032;-72
2021/12/26 03:01:46;;;;;;;9.75;5.07;;;;;;;-2.97;100.00;95584.41;5043881;28;20037;-70
2021/12/26 03:04:12;;;;;;;8.63;4.82;;;;;;;-2.94;100.00;95587.47;5029931;28;20029;-72
2021/12/26 03:07:01;;;;;;;12.02;6.15;;;;;;;-3.04;100.00;95592.16;5026677;28;20505;-71
2021/12/26 03:09:33;;;;;;;6.72;4.07;;;;;;;-3.12;100.00;95584.44;5027492;28;20375;-71
2021/12/26 03:11:59;;;;;;;13.93;5.85;;;;;;;-2.92;100.00;95585.47;5042613;28;20059;-71
2021/12/26 03:14:25;;;;;;;9.15;5.95;;;;;;;-3.02;100.00;95584.16;5027803;28;20045;-71
2021/12/26 03:16:51;;;;;;;8.10;4.40;;;;;;;-3.12;100.00;95581.81;5026629;28;20476;-70
2021/12/26 03:19:18;;;;;;;12.05;5.97;;;;;;;-3.19;100.00;95586.16;5044193;28;20445;-70
2021/12/26 03:21:49;;;;;;;14.82;6.85;;;;;;;-3.03;100.00;95582.53;5044678;28;20693;-70
2021/12/26 03:24:14;;;;;;;11.88;4.82;;;;;;;-3.13;100.00;95588.84;5042080;28;20057;-72
2021/12/26 03:26:40;;;;;;;6.63;3.00;;;;;;;-3.16;100.00;95591.84;5044819;28;20048;-70
2021/12/26 03:29:05;;;;;;;12.13;6.30;;;;;;;-3.08;100.00;95593.56;5026230;28;20120;-72
2021/12/26 03:31:31;;;;;;;13.50;5.68;;;;;;;-3.09;100.00;95599.78;5042433;28;20029;-71
2021/12/26 03:33:57;;;;;;;11.50;5.25;;;;;;;-3.18;100.00;95595.66;5045443;28;20040;-72
2021/12/26 03:36:22;;;;;;;10.75;4.43;;;;;;;-3.24;100.00;95591.97;5027923;28;20041;-71
2021/12/26 03:38:48;;;;;;;12.05;6.05;;;;;;;-3.08;100.00;95586.50;5041942;28;20099;-71
2021/12/26 03:41:23;;;;;;;14.48;7.50;;;;;;;-2.90;100.00;95582.66;5028099;28;20112;-71
2021/12/26 03:43:54;;;;;;;14.93;6.15;;;;;;;-2.78;100.00;95581.19;5026299;28;20041;-70
2021/12/26 03:46:19;;;;;;;12.85;6.00;;;;;;;-2.78;100.00;95586.41;5026323;28;20033;-71
2021/12/26 03:48:47;;;;;;;14.52;7.10;;;;;;;-2.82;100.00;95590.41;5034649;28;20147;-71
2021/12/26 03:51:14;;;;;;;6.78;3.72;;;;;;;-2.83;100.00;95583.53;5026597;28;20033;-71
2021/12/26 03:53:39;;;;;;;17.80;7.85;;;;;;;-2.78;100.00;95590.84;5026986;28;20086;-70
2021/12/26 03:56:05;;;;;;;12.52;6.50;;;;;;;-2.75;100.00;95585.22;5031220;28;20118;-70
2021/12/26 03:58:33;;;;;;;17.45;7.63;;;;;;;-2.70;100.00;95591.53;5026585;28;20565;-70
2021/12/26 04:00:58;;;;;;;16.45;7.10;;;;;;;-2.67;100.00;95588.53;5041743;28;20068;-71
2021/12/26 04:03:25;;;;;;;17.13;6.85;;;;;;;-2.73;100.00;95573.56;5043323;28;20036;-71
2021/12/26 04:06:01;;;;;;;12.60;5.90;;;;;;;-2.67;100.00;95578.06;5043384;28;20419;-71
2021/12/26 04:08:30;;;;;;;12.75;5.88;;;;;;;-2.68;100.00;95573.81;5025677;28;20049;-72
2021/12/26 04:10:56;;;;;;;14.30;6.03;;;;;;;-2.65;100.00;95575.25;5019609;28;20072;-71
2021/12/26 04:13:22;;;;;;;16.63;6.70;;;;;;;-2.67;100.00;95577.25;5026572;28;20527;-71
2021/12/26 04:15:48;;;;;;;15.95;5.57;;;;;;;-2.75;100.00;95588.66;5025179;28;20346;-70
2021/12/26 04:18:14;;;;;;;15.60;7.50;;;;;;;-2.82;100.00;95583.34;5040199;28;20090;-72
2021/12/26 04:20:40;;;;;;;14.38;6.65;;;;;;;-2.92;100.00;95584.66;5026318;28;20037;-70
2021/12/26 04:23:06;;;;;;;13.98;6.60;;;;;;;-2.77;100.00;95576.75;5029927;28;20345;-70
2021/12/26 04:25:32;;;;;;;13.80;6.70;;;;;;;-2.88;100.00;95585.91;5028250;28;20025;-70
2021/12/26 04:27:58;;;;;;;11.60;6.13;;;;;;;-2.88;100.00;95591.13;5043282;28;20057;-70
2021/12/26 04:30:24;;;;;;;10.50;5.00;;;;;;;-2.91;100.00;95588.91;5042778;28;20041;-71
2021/12/26 04:32:50;;;;;;;15.93;6.75;;;;;;;-2.87;100.00;95583.13;5016661;28;20075;-70
2021/12/26 04:35:18;;;;;;;15.05;7.28;;;;;;;-2.87;100.00;95583.13;5042553;28;20041;-71
2021/12/26 04:37:44;;;;;;;10.63;5.68;;;;;;;-2.94;100.00;95594.50;5023589;28;20086;-70
2021/12/26 04:40:13;;;;;;;14.50;6.85;;;;;;;-2.89;100.00;95592.94;5043527;28;20037;-70
2021/12/26 04:42:58;;;;;;;10.57;5.65;;;;;;;-2.99;100.00;95595.06;5043631;28;20467;-71
2021/12/26 04:45:38;;;;;;;10.00;4.75;;;;;;;-3.14;100.00;95584.63;5042701;28;20029;-70
2021/12/26 04:48:39;;;;;;;6.28;3.30;;;;;;;-3.14;100.00;95589.84;5008141;28;20083;-73
2021/12/26 04:51:07;;;;;;;7.90;3.72;;;;;;;-3.11;100.00;95592.13;5042534;28;20489;-73
2021/12/26 04:53:34;;;;;;;10.68;5.25;;;;;;;-3.19;100.00;95592.25;5041181;28;20029;-71
2021/12/26 04:56:00;;;;;;;16.33;8.52;;;;;;;-3.17;100.00;95598.09;5042548;28;20070;-71
2021/12/26 04:58:26;;;;;;;18.95;8.35;;;;;;;-3.07;100.00;95589.94;5025814;28;20029;-70
2021/12/26 05:00:51;;;;;;;16.73;6.07;;;;;;;-3.02;100.00;95590.22;5025707;28;20328;-71
2021/12/26 05:03:17;;;;;;;13.52;7.03;;;;;;;-2.94;100.00;95590.09;5043128;28;20029;-70
2021/12/26 05:05:44;;;;;;;15.80;7.22;;;;;;;-2.83;100.00;95583.53;5043675;28;20123;-71
2021/12/26 05:08:11;;;;;;;13.68;6.30;;;;;;;-3.05;100.00;95584.50;5025651;28;20449;-70
2021/12/26 05:10:37;;;;;;;17.40;7.43;;;;;;;-3.09;100.00;95579.66;5026177;28;20054;-71
2021/12/26 05:13:03;;;;;;;16.23;7.28;;;;;;;-3.06;100.00;95580.28;5043177;28;20384;-70
2021/12/26 05:15:29;;;;;;;21.38;5.50;;;;;;;-3.05;100.00;95581.91;5043722;28;20040;-72
2021/12/26 05:17:55;;;;;;;12.43;5.45;;;;;;;-3.15;100.00;95590.84;5042064;28;20028;-71
2021/12/26 05:20:24;;;;;;;9.95;5.82;;;;;;;-3.24;100.00;95585.94;5025234;28;20318;-71
2021/12/26 05:22:52;;;;;;;11.60;5.90;;;;;;;-3.21;100.00;95588.97;5040877;28;20353;-71
2021/12/26 05:25:20;;;;;;;10.68;5.00;;;;;;;-3.19;100.00;95594.00;5041551;28;20071;-71
2021/12/26 05:27:46;;;;;;;20.65;9.13;;;;;;;-3.04;100.00;95584.31;5031298;28;20410;-70
2021/12/26 05:30:15;;;;;;;16.45;6.30;;;;;;;-3.09;100.00;95577.03;5042629;28;20040;-71
2021/12/26 05:32:42;;;;;;;18.35;7.18;;;;;;;-3.12;100.00;95580.00;5041635;28;20182;-71
2021/12/26 05:35:10;;;;;;;15.63;6.68;;;;;;;-3.09;100.00;95571.81;5026453;28;20508;-72
2021/12/26 05:37:37;;;;;;;16.58;7.05;;;;;;;-3.16;100.00;95578.78;5022998;28;20029;-71
2021/12/26 05:40:04;;;;;;;19.27;8.32;;;;;;;-3.13;100.00;95578.41;5025251;28;20394;-71
2021/12/26 05:42:31;;;;;;;15.60;6.07;;;;;;;-3.08;100.00;95576.03;5027410;28;20048;-71
2021/12/26 05:44:58;;;;;;;16.55;8.15;;;;;;;-2.98;100.00;95557.41;5040925;28;20110;-71
2021/12/26 05:47:25;;;;;;;11.38;5.70;;;;;;;-2.99;100.00;95539.28;5024838;28;20090;-70
2021/12/26 05:49:56;;;;;;;6.63;3.50;;;;;;;-2.89;100.00;95531.91;5024328;28;20036;-71
2021/12/26 05:52:24;;;;;;;12.38;6.38;;;;;;;-2.86;100.00;95534.19;5040581;28;20030;-71
2021/12/26 05:54:54;;;;;;;12.73;6.30;;;;;;;-2.90;100.00;95549.44;5042672;28;20033;-71
2021/12/26 05:57:20;;;;;;;8.50;4.50;;;;;;;-3.00;100.00;95555.97;5040474;28;20039;-71
2021/12/26 05:59:46;;;;;;;14.15;6.10;;;;;;;-2.87;100.00;95566.59;5041181;28;20191;-71
2021/12/26 06:02:13;;;;;;;14.73;7.18;;;;;;;-2.90;100.00;95566.94;5040753;28;20127;-71
2021/12/26 06:04:42;;;;;;;13.70;6.88;;;;;;;-3.01;100.00;95573.50;5041195;28;20033;-71
2021/12/26 06:07:07;;;;;;;14.57;7.43;;;;;;;-3.03;100.00;95578.13;5038721;28;20102;-71
2021/12/26 06:09:33;;;;;;;25.52;8.52;;;;;;;-2.99;100.00;95578.53;5008083;28;20040;-71
2021/12/26 06:11:59;;;;;;;18.23;8.32;;;;;;;-2.95;100.00;95591.09;5039994;28;20036;-71
2021/12/26 06:14:25;;;;;;;14.80;7.25;;;;;;;-2.98;100.00;95596.69;5025410;28;20301;-72
2021/12/26 06:16:51;;;;;;;12.73;6.70;;;;;;;-2.99;100.00;95594.25;5024090;28;20417;-71
2021/12/26 06:19:35;;;;;;;18.42;8.35;;;;;;;-2.94;100.00;95586.66;5042688;28;20372;-71
2021/12/26 06:22:26;;;;;;;18.80;8.27;;;;;;;-2.86;100.00;95582.13;5040635;28;20044;-70
2021/12/26 06:25:12;;;;;;;18.35;9.07;;;;;;;-2.71;100.00;95581.25;5041552;28;20123;-72
2021/12/26 06:27:47;;;;;;;23.55;9.23;;;;;;;-2.66;100.00;95574.44;5027207;28;20090;-71
2021/12/26 06:30:36;;;;;;;12.20;6.47;;;;;;;-2.76;100.00;95578.38;5013758;28;20361;-72
2021/12/26 06:33:20;;;;;;;17.38;6.32;;;;;;;-2.72;100.00;95569.97;5027698;28;20029;-70
2021/12/26 06:36:04;;;;;;;18.60;7.85;;;;;;;-2.71;100.00;95571.59;5042236;28;20519;-70
2021/12/26 06:38:49;;;;;;;10.50;5.63;;;;;;;-2.72;100.00;95558.66;5041690;28;20045;-71
2021/12/26 06:41:40;;;;;;;16.65;9.05;;;;;;;-2.75;100.00;95559.84;5025448;28;20403;-71
2021/12/26 06:44:35;;;;;;;16.85;5.85;;;;;;;-2.88;100.00;95559.72;4987202;28;20539;-71
2021/12/26 06:47:25;;;;;;;15.10;6.68;;;;;;;-2.88;100.00;95570.19;5040605;28;20052;-71
2021/12/26 06:49:51;;;;;;;20.08;8.48;;;;;;;-2.83;100.00;95568.63;5043317;28;20040;-71
2021/12/26 06:52:17;;;;;;;15.02;7.28;;;;;;;-2.84;100.00;95555.75;5021913;28;20036;-71
2021/12/26 06:54:46;;;;;;;18.23;7.70;;;;;;;-2.87;100.00;95556.94;5041044;28;20083;-70
2021/12/26 06:57:12;;;;;;;13.32;6.07;;;;;;;-2.76;100.00;95557.41;5041914;28;20040;-72
2021/12/26 06:59:37;;;;;;;14.48;7.00;;;;;;;-2.77;100.00;95551.38;5024838;28;20526;-70
2021/12/26 07:02:04;;;;;;;20.35;9.23;;;;;;;-2.75;100.00;95559.84;5022802;28;20374;-71
2021/12/26 07:04:46;;;;;;;14.55;7.22;;;;;;;-2.71;100.00;95553.25;5024754;28;20329;-71
2021/12/26 07:07:13;;;;;;;17.98;8.60;;;;;;;-2.83;100.00;95558.16;5025567;28;20029;-70
2021/12/26 07:09:39;;;;;;;16.38;8.10;;;;;;;-2.79;100.00;95566.47;5023841;28;20119;-71
2021/12/26 07:12:06;;;;;;;20.52;8.30;;;;;;;-2.78;100.00;95564.66;5041914;28;20104;-71
2021/12/26 07:14:54;;;;;;;17.45;7.25;;;;;;;-2.82;100.00;95570.25;5025002;28;20045;-70
2021/12/26 07:17:19;;;;;;;13.68;6.60;;;;;;;-2.83;100.00;95562.59;5042698;28;20369;-70
2021/12/26 07:19:50;;;;;;;22.33;9.03;;;;;;;-2.66;100.00;95563.16;5031800;28;20383;-71
2021/12/26 07:22:36;;;;;;;13.50;5.53;;;;;;;-2.70;100.00;95551.44;5009732;28;20306;-70
2021/12/26 07:25:03;;;;;;;14.13;7.35;;;;;;;-2.59;100.00;95564.81;5027243;28;20025;-71
2021/12/26 07:27:29;;;;;;;15.32;7.60;;;;;;;-2.65;100.00;95570.81;5030415;28;20051;-70
2021/12/26 07:30:23;;;;;;;9.50;4.78;;;;;;;-2.68;100.00;95568.56;5044138;28;20120;-71
2021/12/26 07:32:49;;;;;;;15.52;7.28;;;;;;;-2.72;100.00;95580.44;5029785;28;20075;-71
2021/12/26 07:35:17;;;;;;;13.00;6.45;;;;;;;-2.66;100.00;95589.34;5028283;28;20051;-71
2021/12/26 07:37:46;;;;;;;13.15;4.95;;;;;;;-2.71;100.00;95591.72;5029590;28;20079;-71
2021/12/26 07:40:12;;;;;;;17.30;8.45;;;;;;;-2.61;100.00;95581.75;5041081;28;20037;-71
2021/12/26 07:42:40;;;;;;;10.93;5.88;;;;;;;-2.67;100.00;95591.16;5043385;28;20224;-70
2021/12/26 07:45:42;;;;;;;16.20;7.10;;;;;;;-2.73;100.00;95591.09;4996496;28;20034;-70
2021/12/26 07:48:11;;;;;;;20.83;9.63;;;;;;;-2.70;100.00;95598.59;5014368;28;20388;-71
2021/12/26 07:50:37;;;;;;;9.10;5.00;;;;;;;-2.83;100.00;95600.06;5026996;28;20045;-72
2021/12/26 07:53:21;;;;;;;18.33;7.82;;;;;;;-2.79;100.00;95597.91;5042142;28;20364;-70
2021/12/26 07:56:07;;;;;;;19.92;9.57;;;;;;;-2.61;100.00;95603.50;5043197;28;20059;-70
2021/12/26 07:58:51;;;;;;;20.58;7.80;;;;;;;-2.61;100.00;95592.22;5043881;28;20469;-70
2021/12/26 08:01:55;;;;;;;15.90;6.75;;;;;;;-2.61;100.00;95594.84;5043322;28;20052;-71
2021/12/26 08:04:39;;;;;;;15.30;7.47;;;;;;;-2.51;100.00;95590.09;5044323;28;20053;-71
2021/12/26 08:07:37;;;;;;;14.18;6.88;;;;;;;-2.56;100.00;95602.97;5029544;28;20105;-71
2021/12/26 08:10:04;;;;;;;17.00;8.45;;;;;;;-2.47;100.00;95593.97;5042479;28;20206;-71
2021/12/26 08:12:29;;;;;;;11.85;5.63;;;;;;;-2.49;100.00;95601.22;5043592;28;20541;-71
2021/12/26 08:14:55;;;;;;;11.57;5.38;;;;;;;-2.63;100.00;95602.88;5028799;28;20045;-71
2021/12/26 08:17:20;;;;;;;11.98;5.60;;;;;;;-2.70;100.00;95614.31;5043804;28;20033;-71
2021/12/26 08:19:46;;;;;;;15.82;6.68;;;;;;;-2.69;100.00;95608.06;5044628;28;20041;-72
2021/12/26 08:22:11;;;;;;;21.20;8.68;;;;;;;-2.63;100.00;95608.13;5043213;28;21677;-70
2021/12/26 08:24:37;;;;;;;21.58;8.07;;;;;;;-2.63;100.00;95608.13;5042773;28;20090;-70
2021/12/26 08:27:03;;;;;;;15.65;5.50;;;;;;;-2.60;100.00;95601.69;5041123;28;20527;-71
2021/12/26 08:29:29;;;;;;;10.38;5.55;;;;;;;-2.76;100.00;95599.31;5042160;28;20060;-71
2021/12/26 08:31:58;;;;;;;12.85;6.40;;;;;;;-2.61;100.00;95602.69;5040626;28;20075;-71
2021/12/26 08:34:23;;;;;;;16.27;8.30;;;;;;;-2.55;100.00;95596.72;5044108;28;20453;-72
2021/12/26 08:37:04;;;;;;;14.65;7.10;;;;;;;-2.54;100.00;95595.72;5043669;28;20060;-72
2021/12/26 08:39:33;;;;;;;14.77;6.78;;;;;;;-2.67;100.00;95599.00;5042770;28;20426;-71
2021/12/26 08:41:59;;;;;;;19.73;9.40;;;;;;;-2.69;100.00;95601.00;5044604;28;20037;-70
2021/12/26 08:44:25;;;;;;;18.77;8.73;;;;;;;-2.58;100.00;95605.75;5044089;28;20535;-70
2021/12/26 08:46:51;;;;;;;14.80;6.88;;;;;;;-2.54;100.00;95607.00;5040869;28;20636;-70
2021/12/26 08:49:17;;;;;;;13.80;6.00;;;;;;;-2.46;100.00;95602.63;5042407;28;20486;-71
2021/12/26 08:51:44;;;;;;;14.63;7.32;;;;;;;-2.39;100.00;95591.22;5043544;28;20104;-70
2021/12/26 08:54:10;;;;;;;20.48;8.57;;;;;;;-2.31;100.00;95606.00;5042623;28;20041;-70
2021/12/26 08:56:37;;;;;;;15.10;7.57;;;;;;;-2.35;100.00;95605.53;5043117;28;20114;-70
2021/12/26 08:59:03;;;;;;;18.60;8.70;;;;;;;-2.36;100.00;95617.03;5043103;28;20491;-70
2021/12/26 09:01:28;;;;;;;13.98;6.90;;;;;;;-2.41;100.00;95602.84;5041411;28;20078;-70
2021/12/26 09:03:54;;;;;;;12.00;5.18;;;;;;;-2.49;100.00;95616.09;5038111;28;20166;-70
2021/12/26 09:06:19;;;;;;;13.35;5.82;;;;;;;-2.44;100.00;95603.25;5038285;28;20041;-72
2021/12/26 09:08:45;;;;;;;22.00;8.65;;;;;;;-2.40;100.00;95604.50;5040024;28;20155;-70
2021/12/26 09:11:10;;;;;;;16.17;7.18;;;;;;;-2.33;100.00;95605.38;5040037;28;20028;-71
2021/12/26 09:13:36;;;;;;;14.35;7.25;;;;;;;-2.31;100.00;95601.56;5042112;28;20404;-69
2021/12/26 09:16:03;;;;;;;16.95;7.55;;;;;;;-2.25;100.00;95600.81;5039956;28;20105;-71
2021/12/26 09:18:28;;;;;;;16.30;6.22;;;;;;;-2.17;100.00;95602.47;5040388;28;20037;-70
2021/12/26 09:20:54;;;;;;;15.95;7.00;;;;;;;-2.04;100.00;95612.25;5040070;28;20043;-71
2021/12/26 09:23:19;;;;;;;22.77;8.80;;;;;;;-1.87;100.00;95604.88;5040339;28;20508;-71
2021/12/26 09:25:45;;;;;;;20.15;9.63;;;;;;;-1.87;100.00;95613.56;5041551;28;20033;-70
2021/12/26 09:28:10;;;;;;;13.00;6.82;;;;;;;-1.91;100.00;95616.78;5038708;28;20341;-70
2021/12/26 09:30:37;;;;;;;16.10;7.63;;;;;;;-1.89;100.00;95610.34;5043215;28;20110;-70
2021/12/26 09:33:03;;;;;;;20.70;8.75;;;;;;;-1.96;100.00;95619.97;5041198;28;20480;-70
2021/12/26 09:35:28;;;;;;;12.73;7.05;;;;;;;-1.90;100.00;95610.53;5044274;28;20090;-71
2021/12/26 09:37:54;;;;;;;22.13;9.25;;;;;;;-1.93;100.00;95616.16;5042579;28;20052;-70
2021/12/26 09:40:20;;;;;;;13.55;5.85;;;;;;;-1.98;100.00;95621.97;5043027;28;20037;-71
2021/12/26 09:42:46;;;;;;;20.52;8.15;;;;;;;-1.93;100.00;95629.28;5044437;28;20029;-70
2021/12/26 09:45:13;;;;;;;23.88;8.93;;;;;;;-1.93;100.00;95621.41;5043753;28;20041;-70
2021/12/26 09:47:40;;;;;;;20.42;8.95;;;;;;;-1.93;100.00;95619.59;5042517;28;20044;-70
2021/12/26 09:50:09;;;;;;;14.32;6.55;;;;;;;-2.01;100.00;95615.31;5042697;28;20462;-71
2021/12/26 09:52:35;;;;;;;19.33;10.25;;;;;;;-1.92;100.00;95628.28;5041038;28;20040;-70
2021/12/26 09:55:01;;;;;;;18.73;9.07;;;;;;;-2.02;100.00;95626.81;5042126;28;20361;-70
2021/12/26 09:57:28;;;;;;;15.00;6.47;;;;;;;-1.97;100.00;95619.16;5042182;28;20407;-70
2021/12/26 09:59:54;;;;;;;25.83;9.32;;;;;;;-1.76;100.00;95613.06;5042348;28;20040;-71
2021/12/26 10:02:20;;;;;;;16.55;6.95;;;;;;;-1.69;100.00;95602.59;5041239;28;20068;-71
2021/12/26 10:04:48;;;;;;;20.17;8.10;;;;;;;-1.57;100.00;95608.09;5043570;28;20466;-70
2021/12/26 10:07:17;;;;;;;16.33;7.05;;;;;;;-1.45;100.00;95606.56;5040396;28;20049;-70
2021/12/26 10:09:53;;;;;;;14.57;6.28;;;;;;;-1.37;100.00;95605.59;5042386;28;20482;-70
2021/12/26 10:12:20;;;;;;;24.13;8.88;;;;;;;-1.45;100.00;95610.00;5039221;28;20116;-70
2021/12/26 10:14:52;;;;;;;20.60;8.32;;;;;;;-1.53;100.00;95604.09;5041209;28;20036;-70
2021/12/26 10:17:26;;;;;;;21.33;8.45;;;;;;;-1.64;100.00;95602.81;5041554;28;20379;-70
2021/12/26 10:19:59;;;;;;;12.68;5.88;;;;;;;-1.76;100.00;95599.13;5037939;28;20032;-71
2021/12/26 10:22:26;;;;;;;15.57;7.15;;;;;;;-1.71;100.00;95591.50;5040417;28;20037;-71
2021/12/26 10:24:54;;;;;;;13.88;5.70;;;;;;;-1.70;100.00;95587.88;5042178;28;20472;-71
2021/12/26 10:27:23;;;;;;;11.65;5.38;;;;;;;-1.58;100.00;95588.94;5040035;28;20110;-71
2021/12/26 10:29:57;;;;;;;13.48;5.55;;;;;;;-1.46;100.00;95582.13;5033176;28;20032;-70
2021/12/26 10:32:25;;;;;;;12.98;5.97;;;;;;;-1.33;100.00;95580.56;5040961;28;20067;-70
2021/12/26 10:34:54;;;;;;;20.27;8.95;;;;;;;-1.19;100.00;95572.56;5044139;28;20037;-70
2021/12/26 10:37:33;;;;;;;10.25;6.80;;;;;;;-1.29;100.00;95566.88;5024143;28;20025;-71
2021/12/26 10:40:10;;;;;;;13.63;5.95;;;;;;;-1.34;100.00;95568.44;5040894;28;20407;-70
2021/12/26 10:42:40;;;;;;;11.65;6.47;;;;;;;-1.22;100.00;95561.66;5038102;28;20029;-71
2021/12/26 10:45:12;;;;;;;16.58;5.90;;;;;;;-1.25;100.00;95572.53;5040088;28;20041;-71
2021/12/26 10:47:45;;;;;;;10.07;5.22;;;;;;;-1.26;100.00;95565.66;5040411;28;20056;-70
2021/12/26 10:50:13;;;;;;;26.10;10.32;;;;;;;-0.91;100.00;95563.75;5041725;28;20067;-71
2021/12/26 10:52:51;;;;;;;16.70;7.07;;;;;;;-0.94;100.00;95572.81;5041931;28;20531;-71
2021/12/26 10:55:19;;;;;;;17.33;7.63;;;;;;;-1.05;100.00;95554.22;5041967;28;20415;-71
2021/12/26 10:57:50;;;;;;;22.20;9.00;;;;;;;-0.88;100.00;95558.91;5043708;28;20104;-71
2021/12/26 11:00:18;;;;;;;15.63;7.43;;;;;;;-1.14;100.00;95570.16;5045811;28;20095;-71
2021/12/26 11:02:52;;;;;;;18.73;7.93;;;;;;;-1.00;100.00;95563.13;5043794;28;20037;-70
2021/12/26 11:05:24;;;;;;;16.60;6.75;;;;;;;-1.06;100.00;95556.03;5046581;28;20388;-71
2021/12/26 11:08:02;;;;;;;19.88;8.00;;;;;;;-0.85;100.00;95558.53;5044880;28;20049;-70
2021/12/26 11:10:32;;;;;;;16.70;6.13;;;;;;;-0.82;100.00;95549.44;5047272;28;20357;-70
2021/12/26 11:12:59;;;;;;;14.30;6.80;;;;;;;-0.91;100.00;95548.00;5047546;28;20443;-71
2021/12/26 11:15:32;;;;;;;21.55;8.32;;;;;;;-1.04;100.00;95554.00;5047997;28;20065;-70
2021/12/26 11:18:02;;;;;;;17.80;7.32;;;;;;;-0.94;100.00;95543.94;5045307;28;20040;-70
2021/12/26 11:20:55;;;;;;;18.80;6.95;;;;;;;-0.77;100.00;95535.72;5046342;28;20479;-70
2021/12/26 11:23:33;;;;;;;19.73;6.88;;;;;;;-0.89;100.00;95541.53;5037147;28;20045;-70
2021/12/26 11:26:00;;;;;;;13.88;5.28;;;;;;;-0.95;100.00;95534.44;5040730;28;20111;-70
2021/12/26 11:28:30;;;;;;;15.23;6.70;;;;;;;-0.80;100.00;95536.09;5045228;28;20032;-70
2021/12/26 11:31:07;;;;;;;18.67;6.93;;;;;;;-0.89;100.00;95523.13;5042901;28;20091;-71
2021/12/26 11:33:34;;;;;;;20.42;7.93;;;;;;;-0.77;100.00;95522.56;5044051;28;20552;-70